createdAt,value
2019-02-02T00:01:46.626Z,3.80
2019-02-02T00:04:17.529Z,3.70
2019-02-02T00:06:47.065Z,3.70
2019-02-02T00:09:16.438Z,3.60
2019-02-02T00:11:45.861Z,3.70
2019-02-02T00:14:15.380Z,3.60
2019-02-02T00:16:44.721Z,3.50
2019-02-02T00:19:14.092Z,3.50
2019-02-02T00:21:43.493Z,3.40
2019-02-02T00:24:12.897Z,3.40
2019-02-02T00:26:42.341Z,3.50
2019-02-02T00:29:11.765Z,3.50
2019-02-02T00:31:41.095Z,3.40
2019-02-02T00:34:10.496Z,3.50
2019-02-02T00:36:39.864Z,3.40
2019-02-02T00:39:10.750Z,3.50
2019-02-02T00:41:40.121Z,3.40
2019-02-02T00:44:09.613Z,3.30
2019-02-02T00:46:39.036Z,3.20
2019-02-02T00:49:08.378Z,3.10
2019-02-02T00:51:37.748Z,3.10
2019-02-02T00:54:07.162Z,3.00
2019-02-02T00:56:36.545Z,3.10
2019-02-02T00:59:05.983Z,3.10
2019-02-02T01:01:35.367Z,2.90
2019-02-02T01:04:05.049Z,2.80
2019-02-02T01:06:34.424Z,2.70
2019-02-02T01:09:06.799Z,2.80
2019-02-02T01:11:36.216Z,2.70
2019-02-02T01:14:05.781Z,2.70
2019-02-02T01:16:35.089Z,2.70
2019-02-02T01:19:04.489Z,2.80
2019-02-02T01:21:33.813Z,2.70
2019-02-02T01:24:03.216Z,2.70
2019-02-02T01:26:32.654Z,2.70
2019-02-02T01:29:02.028Z,2.70
2019-02-02T01:31:31.458Z,2.70
2019-02-02T01:34:00.876Z,2.70
2019-02-02T01:36:30.248Z,2.60
2019-02-02T01:38:59.609Z,2.50
2019-02-02T01:41:28.946Z,2.50
2019-02-02T01:43:58.244Z,2.50
2019-02-02T01:46:27.586Z,2.30
2019-02-02T01:48:56.901Z,2.30
2019-02-02T01:51:26.217Z,2.30
2019-02-02T01:53:55.860Z,2.30
2019-02-02T01:56:25.229Z,2.40
2019-02-02T01:58:54.554Z,2.40
2019-02-02T02:01:23.977Z,2.30
2019-02-02T02:03:53.297Z,2.30
2019-02-02T02:06:22.678Z,2.20
2019-02-02T02:08:52.329Z,2.20
2019-02-02T02:11:21.691Z,2.20
2019-02-02T02:13:54.439Z,2.20
2019-02-02T02:16:23.918Z,2.10
2019-02-02T02:18:53.353Z,2.10
2019-02-02T02:21:22.784Z,2.10
2019-02-02T02:23:52.255Z,2.00
2019-02-02T02:26:21.664Z,1.90
2019-02-02T02:28:51.096Z,1.80
2019-02-02T02:31:20.472Z,1.80
2019-02-02T02:33:49.879Z,1.80
2019-02-02T02:36:19.284Z,1.80
2019-02-02T02:38:48.595Z,1.90
2019-02-02T02:41:18.025Z,1.90
2019-02-02T02:43:47.346Z,2.00
2019-02-02T02:46:16.752Z,2.00
2019-02-02T02:48:46.182Z,2.00
2019-02-02T02:51:15.555Z,2.00
2019-02-02T02:53:44.977Z,2.00
2019-02-02T02:56:14.339Z,2.00
2019-02-02T02:58:43.748Z,2.00
2019-02-02T03:01:13.082Z,2.00
2019-02-02T03:03:42.521Z,2.10
2019-02-02T03:06:12.034Z,2.00
2019-02-02T03:08:41.393Z,2.00
2019-02-02T03:11:10.758Z,2.00
2019-02-02T03:13:40.176Z,2.00
2019-02-02T03:16:09.580Z,2.00
2019-02-02T03:18:38.946Z,2.10
2019-02-02T03:21:08.353Z,2.20
2019-02-02T03:23:37.798Z,2.30
2019-02-02T03:26:07.293Z,2.40
2019-02-02T03:28:36.628Z,2.50
2019-02-02T03:31:06.077Z,2.50
2019-02-02T03:33:35.604Z,2.50
2019-02-02T03:36:05.129Z,2.40
2019-02-02T03:38:34.505Z,2.50
2019-02-02T03:41:03.896Z,2.50
2019-02-02T03:43:33.220Z,2.50
2019-02-02T03:46:02.682Z,2.50
2019-02-02T03:48:31.997Z,2.50
2019-02-02T03:51:01.299Z,2.60
2019-02-02T03:53:30.677Z,2.60
2019-02-02T03:55:59.974Z,2.60
2019-02-02T03:58:29.361Z,2.70
2019-02-02T04:00:58.747Z,2.70
2019-02-02T04:03:28.143Z,2.70
2019-02-02T04:05:57.560Z,2.70
2019-02-02T04:08:26.976Z,2.80
2019-02-02T04:10:56.409Z,2.80
2019-02-02T04:13:25.806Z,2.70
2019-02-02T04:15:55.178Z,2.70
2019-02-02T04:18:24.549Z,2.70
2019-02-02T04:20:53.904Z,2.60
2019-02-02T04:23:23.324Z,2.60
2019-02-02T04:25:52.630Z,2.60
2019-02-02T04:28:21.961Z,2.60
2019-02-02T04:30:51.310Z,2.60
2019-02-02T04:33:20.624Z,2.60
2019-02-02T04:35:50.013Z,2.70
2019-02-02T04:38:19.404Z,2.70
2019-02-02T04:40:48.805Z,2.70
2019-02-02T04:43:18.192Z,2.80
2019-02-02T04:45:47.584Z,2.80
2019-02-02T04:48:16.968Z,2.70
2019-02-02T04:50:46.353Z,2.80
2019-02-02T04:53:15.801Z,2.70
2019-02-02T04:55:45.121Z,2.80
2019-02-02T04:58:14.531Z,2.80
2019-02-02T05:00:43.957Z,2.80
2019-02-02T05:03:13.390Z,2.80
2019-02-02T05:05:42.734Z,2.80
2019-02-02T05:08:12.100Z,2.80
2019-02-02T05:10:41.401Z,2.70
2019-02-02T05:13:10.721Z,2.70
2019-02-02T05:15:40.095Z,2.70
2019-02-02T05:18:09.473Z,2.80
2019-02-02T05:20:38.869Z,2.70
2019-02-02T05:23:08.297Z,2.70
2019-02-02T05:25:37.709Z,2.70
2019-02-02T05:28:07.034Z,2.70
2019-02-02T05:30:36.449Z,2.70
2019-02-02T05:33:05.769Z,2.60
2019-02-02T05:35:35.091Z,2.70
2019-02-02T05:38:04.605Z,2.60
2019-02-02T05:40:33.980Z,2.60
2019-02-02T05:43:03.346Z,2.60
2019-02-02T05:45:32.725Z,2.60
2019-02-02T05:48:02.110Z,2.50
2019-02-02T05:50:31.506Z,2.60
2019-02-02T05:53:00.922Z,2.60
2019-02-02T05:55:30.253Z,2.60
2019-02-02T05:57:59.662Z,2.60
2019-02-02T06:00:37.573Z,2.60
2019-02-02T06:03:06.885Z,2.70
2019-02-02T06:05:36.287Z,2.70
2019-02-02T06:08:05.817Z,2.60
2019-02-02T06:10:35.235Z,2.60
2019-02-02T06:13:04.732Z,2.70
2019-02-02T06:15:34.183Z,2.70
2019-02-02T06:18:03.697Z,2.70
2019-02-02T06:20:33.008Z,2.60
2019-02-02T06:23:02.340Z,2.70
2019-02-02T06:25:31.741Z,2.70
2019-02-02T06:28:01.140Z,2.70
2019-02-02T06:30:30.729Z,2.80
2019-02-02T06:33:00.085Z,2.90
2019-02-02T06:35:29.389Z,2.80
2019-02-02T06:37:58.770Z,2.80
2019-02-02T06:40:28.089Z,2.80
2019-02-02T06:42:57.481Z,2.80
2019-02-02T06:45:32.209Z,2.90
2019-02-02T06:48:01.586Z,2.80
2019-02-02T06:50:30.920Z,2.80
2019-02-02T06:53:00.474Z,2.70
2019-02-02T06:55:29.809Z,2.70
2019-02-02T06:57:59.167Z,2.70
2019-02-02T07:00:28.625Z,2.70
2019-02-02T07:02:58.101Z,2.70
2019-02-02T07:05:27.665Z,2.70
2019-02-02T07:07:57.098Z,2.70
2019-02-02T07:10:26.952Z,2.70
2019-02-02T07:12:56.677Z,2.70
2019-02-02T07:15:27.981Z,2.70
2019-02-02T07:17:57.329Z,2.60
2019-02-02T07:20:26.957Z,2.70
2019-02-02T07:22:56.393Z,2.80
2019-02-02T07:25:25.797Z,2.70
2019-02-02T07:27:55.101Z,2.70
2019-02-02T07:30:29.505Z,2.50
2019-02-02T07:32:55.958Z,2.50
2019-02-02T07:35:25.337Z,2.70
2019-02-02T07:37:54.727Z,2.70
2019-02-02T07:40:24.102Z,2.70
2019-02-02T07:42:53.515Z,2.70
2019-02-02T07:45:31.888Z,2.80
2019-02-02T07:48:01.292Z,2.90
2019-02-02T07:50:30.634Z,2.80
2019-02-02T07:53:00.065Z,2.80
2019-02-02T07:55:29.371Z,2.80
2019-02-02T07:57:58.763Z,2.80
2019-02-02T08:00:40.518Z,2.80
2019-02-02T08:03:01.741Z,2.70
2019-02-02T08:05:31.249Z,2.70
2019-02-02T08:08:00.600Z,2.70
2019-02-02T08:10:30.059Z,2.60
2019-02-02T08:12:59.495Z,2.60
2019-02-02T08:15:30.673Z,2.60
2019-02-02T08:18:00.103Z,2.60
2019-02-02T08:20:29.669Z,2.70
2019-02-02T08:22:59.074Z,2.80
2019-02-02T08:25:28.416Z,2.80
2019-02-02T08:27:57.841Z,2.80
2019-02-02T08:30:29.274Z,2.80
2019-02-02T08:32:58.727Z,2.80
2019-02-02T08:35:28.137Z,2.90
2019-02-02T08:37:57.498Z,2.90
2019-02-02T08:40:27.037Z,3.00
2019-02-02T08:42:56.389Z,3.10
2019-02-02T08:45:25.825Z,3.10
2019-02-02T08:47:55.212Z,3.20
2019-02-02T08:50:32.951Z,3.30
2019-02-02T08:53:02.284Z,3.40
2019-02-02T08:55:32.000Z,3.40
2019-02-02T08:58:01.442Z,3.50
2019-02-02T09:00:30.781Z,3.50
2019-02-02T09:03:00.205Z,3.60
2019-02-02T09:05:29.642Z,3.60
2019-02-02T09:07:59.064Z,3.70
2019-02-02T09:10:28.938Z,3.80
2019-02-02T09:12:58.760Z,3.80
2019-02-02T09:15:28.832Z,3.90
2019-02-02T09:17:58.259Z,4.00
2019-02-02T09:20:27.704Z,4.00
2019-02-02T09:23:05.955Z,4.00
2019-02-02T09:25:28.327Z,4.20
2019-02-02T09:27:57.773Z,4.30
2019-02-02T09:30:32.437Z,4.40
2019-02-02T09:33:02.028Z,4.40
2019-02-02T09:35:31.512Z,4.40
2019-02-02T09:38:00.901Z,4.50
2019-02-02T09:40:30.433Z,4.50
2019-02-02T09:42:59.851Z,4.60
2019-02-02T09:45:29.246Z,4.70
2019-02-02T09:51:07.366Z,4.80
2019-02-02T09:53:37.003Z,4.80
2019-02-02T09:56:06.502Z,4.80
2019-02-02T09:58:35.810Z,4.90
2019-02-02T10:01:06.259Z,5.10
2019-02-02T10:03:35.736Z,5.20
2019-02-02T10:06:05.198Z,5.40
2019-02-02T10:08:34.634Z,5.50
2019-02-02T10:11:03.973Z,5.50
2019-02-02T10:13:34.406Z,5.70
2019-02-02T10:16:03.813Z,5.70
2019-02-02T10:18:33.124Z,5.90
2019-02-02T10:21:04.168Z,6.00
2019-02-02T10:23:33.766Z,6.00
2019-02-02T10:26:03.152Z,6.00
2019-02-02T10:28:32.500Z,6.10
2019-02-02T10:31:01.865Z,6.10
2019-02-02T10:33:31.308Z,6.20
2019-02-02T10:36:00.720Z,6.30
2019-02-02T10:38:30.226Z,6.30
2019-02-02T10:40:59.626Z,6.40
2019-02-02T10:43:29.058Z,7.90
2019-02-02T10:45:58.501Z,6.60
2019-02-02T10:48:27.874Z,6.60
2019-02-02T10:50:57.270Z,6.70
2019-02-02T10:53:26.623Z,6.80
2019-02-02T10:55:56.017Z,6.90
2019-02-02T10:58:25.381Z,7.10
2019-02-02T11:00:54.839Z,7.10
2019-02-02T11:03:24.245Z,7.00
2019-02-02T11:05:53.746Z,6.90
2019-02-02T11:08:23.206Z,6.80
2019-02-02T11:10:52.606Z,6.90
2019-02-02T11:13:22.089Z,7.00
2019-02-02T11:15:51.640Z,7.10
2019-02-02T11:18:21.011Z,7.10
2019-02-02T11:20:50.573Z,7.20
2019-02-02T11:23:20.056Z,7.20
2019-02-02T11:25:49.381Z,7.30
2019-02-02T11:28:18.953Z,7.30
2019-02-02T11:30:48.684Z,7.40
2019-02-02T11:33:18.026Z,7.40
2019-02-02T11:35:47.320Z,7.40
2019-02-02T11:38:16.745Z,7.30
2019-02-02T11:40:46.076Z,7.40
2019-02-02T11:43:15.421Z,7.30
2019-02-02T11:45:44.853Z,7.40
2019-02-02T11:48:15.120Z,7.40
2019-02-02T11:50:44.553Z,7.40
2019-02-02T11:53:13.907Z,7.40
2019-02-02T11:55:43.336Z,7.40
2019-02-02T11:58:12.617Z,7.40
2019-02-02T12:00:42.960Z,7.40
2019-02-02T12:03:12.393Z,7.40
2019-02-02T12:05:41.788Z,7.40
2019-02-02T12:08:11.148Z,7.40
2019-02-02T12:10:40.470Z,7.40
2019-02-02T12:13:09.877Z,7.60
2019-02-02T12:15:40.340Z,7.60
2019-02-02T12:18:11.837Z,7.60
2019-02-02T12:20:40.821Z,7.70
2019-02-02T12:23:10.254Z,7.60
2019-02-02T12:25:39.731Z,7.60
2019-02-02T12:28:09.406Z,7.60
2019-02-02T12:30:38.892Z,7.60
2019-02-02T12:33:08.225Z,7.70
2019-02-02T12:35:37.760Z,7.70
2019-02-02T12:38:07.231Z,7.70
2019-02-02T12:40:36.608Z,7.70
2019-02-02T12:43:06.245Z,7.70
2019-02-02T12:45:57.947Z,7.60
2019-02-02T12:48:28.091Z,7.70
2019-02-02T12:50:57.488Z,7.70
2019-02-02T12:53:27.756Z,7.70
2019-02-02T12:55:57.352Z,7.70
2019-02-02T12:58:26.873Z,7.80
2019-02-02T13:00:56.665Z,7.80
2019-02-02T13:03:26.090Z,7.90
2019-02-02T13:05:55.489Z,8.00
2019-02-02T13:08:24.946Z,8.10
2019-02-02T13:10:54.545Z,7.90
2019-02-02T13:13:23.940Z,7.90
2019-02-02T13:15:53.346Z,7.80
2019-02-02T13:18:22.770Z,8.00
2019-02-02T13:20:52.592Z,7.90
2019-02-02T13:23:22.132Z,8.00
2019-02-02T13:25:51.536Z,8.00
2019-02-02T13:28:21.465Z,8.10
2019-02-02T13:30:50.966Z,8.10
2019-02-02T13:33:20.364Z,8.00
2019-02-02T13:35:50.234Z,8.00
2019-02-02T13:38:20.274Z,8.00
2019-02-02T13:40:49.934Z,8.00
2019-02-02T13:43:19.716Z,8.00
2019-02-02T13:45:49.203Z,8.00
2019-02-02T13:48:18.814Z,8.10
2019-02-02T13:50:51.387Z,8.00
2019-02-02T13:53:20.935Z,8.00
2019-02-02T13:55:50.389Z,7.90
2019-02-02T13:58:19.765Z,8.00
2019-02-02T14:00:49.199Z,8.10
2019-02-02T14:03:18.668Z,8.10
2019-02-02T14:05:48.118Z,8.00
2019-02-02T14:08:17.978Z,8.00
2019-02-02T14:10:47.438Z,8.10
2019-02-02T14:13:16.944Z,8.00
2019-02-02T14:15:46.392Z,8.00
2019-02-02T14:18:15.856Z,7.90
2019-02-02T14:24:00.586Z,8.00
2019-02-02T14:30:36.351Z,8.00
2019-02-02T14:33:13.843Z,7.90
2019-02-02T14:35:37.355Z,7.90
2019-02-02T14:38:06.794Z,7.90
2019-02-02T14:40:36.702Z,7.80
2019-02-02T14:43:08.948Z,7.80
2019-02-02T14:45:38.407Z,7.80
2019-02-02T14:48:07.925Z,7.80
2019-02-02T14:50:37.389Z,7.70
2019-02-02T14:53:06.781Z,7.70
2019-02-02T14:55:36.203Z,7.70
2019-02-02T14:58:06.193Z,7.70
2019-02-02T15:00:37.528Z,7.70
2019-02-02T15:03:07.005Z,7.70
2019-02-02T15:05:42.971Z,7.70
2019-02-02T15:08:07.592Z,7.70
2019-02-02T15:10:37.010Z,7.60
2019-02-02T15:13:06.441Z,7.60
2019-02-02T15:15:35.997Z,7.60
2019-02-02T15:18:05.405Z,7.60
2019-02-02T15:20:36.501Z,7.60
2019-02-02T15:23:06.837Z,7.50
2019-02-02T15:25:36.276Z,7.50
2019-02-02T15:28:06.058Z,7.40
2019-02-02T15:30:36.208Z,7.40
2019-02-02T15:33:06.010Z,7.40
2019-02-02T15:35:35.494Z,7.40
2019-02-02T15:38:05.221Z,7.40
2019-02-02T15:40:34.549Z,7.40
2019-02-02T15:43:03.912Z,7.30
2019-02-02T15:45:33.549Z,7.30
2019-02-02T15:48:02.871Z,7.30
2019-02-02T15:50:32.321Z,7.30
2019-02-02T15:53:01.814Z,7.20
2019-02-02T15:55:31.205Z,7.20
2019-02-02T15:58:00.641Z,7.20
2019-02-02T16:00:34.555Z,7.10
2019-02-02T16:03:04.336Z,7.10
2019-02-02T16:05:34.149Z,7.00
2019-02-02T16:08:06.391Z,6.90
2019-02-02T16:10:35.790Z,6.90
2019-02-02T16:13:05.357Z,6.90
2019-02-02T16:15:34.860Z,6.80
2019-02-02T16:18:04.708Z,6.70
2019-02-02T16:20:36.439Z,6.70
2019-02-02T16:23:06.457Z,6.60
2019-02-02T16:25:35.900Z,6.60
2019-02-02T16:28:06.056Z,6.60
2019-02-02T16:30:35.449Z,6.50
2019-02-02T16:33:05.197Z,6.50
2019-02-02T16:35:34.686Z,6.50
2019-02-02T16:38:04.053Z,6.40
2019-02-02T16:40:33.523Z,6.40
2019-02-02T16:43:02.966Z,6.40
2019-02-02T16:45:32.483Z,6.40
2019-02-02T16:48:01.974Z,6.30
2019-02-02T17:00:52.761Z,6.20
2019-02-02T17:04:19.908Z,6.20
2019-02-02T17:06:46.673Z,6.20
2019-02-02T17:09:16.133Z,6.20
2019-02-02T17:11:45.589Z,6.10
2019-02-02T17:14:17.749Z,6.00
2019-02-02T17:16:46.136Z,6.00
2019-02-02T17:19:15.533Z,6.00
2019-02-02T17:21:44.937Z,5.90
2019-02-02T17:24:14.277Z,5.90
2019-02-02T17:26:43.675Z,6.00
2019-02-02T17:29:13.053Z,5.90
2019-02-02T17:31:42.461Z,5.70
2019-02-02T17:34:11.809Z,5.80
2019-02-02T17:36:41.270Z,5.70
2019-02-02T17:39:10.706Z,5.60
2019-02-02T17:41:40.085Z,5.60
2019-02-02T17:44:09.457Z,5.60
2019-02-02T17:46:38.863Z,5.50
2019-02-02T17:49:08.274Z,5.50
2019-02-02T17:51:37.708Z,5.50
2019-02-02T17:54:07.277Z,5.40
2019-02-02T17:56:36.706Z,5.40
2019-02-02T17:59:06.118Z,5.40
2019-02-02T18:01:35.610Z,5.30
2019-02-02T18:04:05.198Z,5.30
2019-02-02T18:06:34.641Z,5.30
2019-02-02T18:09:05.545Z,5.40
2019-02-02T18:11:34.885Z,5.40
2019-02-02T18:14:04.456Z,5.30
2019-02-02T18:16:33.848Z,5.40
2019-02-02T18:19:03.189Z,5.40
2019-02-02T18:21:32.656Z,5.40
2019-02-02T18:24:02.299Z,5.40
2019-02-02T18:26:31.710Z,5.30
2019-02-02T18:29:01.093Z,5.50
2019-02-02T18:31:30.527Z,5.50
2019-02-02T18:34:01.890Z,5.40
2019-02-02T18:36:31.149Z,5.30
2019-02-02T18:39:00.550Z,5.30
2019-02-02T18:41:29.982Z,5.30
2019-02-02T18:43:59.379Z,5.30
2019-02-02T18:46:28.960Z,5.30
2019-02-02T18:48:58.346Z,5.30
2019-02-02T18:51:27.777Z,5.30
2019-02-02T18:53:57.176Z,5.40
2019-02-02T18:56:26.510Z,5.40
2019-02-02T18:58:55.937Z,5.30
2019-02-02T19:01:26.309Z,5.30
2019-02-02T19:03:55.673Z,5.30
2019-02-02T19:06:25.104Z,5.20
2019-02-02T19:08:54.517Z,5.10
2019-02-02T19:11:23.961Z,5.10
2019-02-02T19:13:53.354Z,5.20
2019-02-02T19:16:22.793Z,5.20
2019-02-02T19:18:52.156Z,5.20
2019-02-02T19:21:22.790Z,5.20
2019-02-02T19:23:52.365Z,5.10
2019-02-02T19:26:21.844Z,5.10
2019-02-02T19:28:51.274Z,5.20
2019-02-02T19:31:20.599Z,5.20
2019-02-02T19:33:49.952Z,5.30
2019-02-02T19:36:19.390Z,5.20
2019-02-02T19:38:48.788Z,5.20
2019-02-02T19:41:18.234Z,5.20
2019-02-02T19:43:47.869Z,5.10
2019-02-02T19:46:17.293Z,5.10
2019-02-02T19:48:46.741Z,5.10
2019-02-02T19:51:16.152Z,5.10
2019-02-02T19:53:45.565Z,5.10
2019-02-02T19:56:14.981Z,5.10
2019-02-02T19:58:44.393Z,5.20
2019-02-02T20:01:13.808Z,5.20
2019-02-02T20:03:43.201Z,5.10
2019-02-02T20:06:12.605Z,5.20
2019-02-02T20:08:41.939Z,5.20
2019-02-02T20:11:11.396Z,5.30
2019-02-02T20:13:41.205Z,5.30
2019-02-02T20:16:12.114Z,5.30
2019-02-02T20:18:42.898Z,5.30
2019-02-02T20:21:15.553Z,5.30
2019-02-02T20:23:47.416Z,5.30
2019-02-02T20:26:18.639Z,5.20
2019-02-02T20:28:48.040Z,5.20
2019-02-02T20:31:17.494Z,5.20
2019-02-02T20:33:49.035Z,5.20
2019-02-02T20:36:20.893Z,5.10
2019-02-02T20:38:52.299Z,5.20
2019-02-02T20:41:33.608Z,5.20
2019-02-02T20:44:07.710Z,5.30
2019-02-02T20:46:38.917Z,5.20
2019-02-02T20:49:09.399Z,5.10
2019-02-02T20:51:38.802Z,5.10
2019-02-02T20:54:08.180Z,5.10
2019-02-02T20:56:37.601Z,5.10
2019-02-02T20:59:07.016Z,5.10
2019-02-02T21:01:36.469Z,5.10
2019-02-02T21:04:06.109Z,5.10
2019-02-02T21:06:35.510Z,5.10
2019-02-02T21:09:07.337Z,5.00
2019-02-02T21:11:36.729Z,5.00
2019-02-02T21:14:06.341Z,5.00
2019-02-02T21:16:35.784Z,5.00
2019-02-02T21:19:05.194Z,4.90
2019-02-02T21:21:34.657Z,5.00
2019-02-02T21:24:04.434Z,4.90
2019-02-02T21:26:33.856Z,4.90
2019-02-02T21:29:03.293Z,4.90
2019-02-02T21:31:32.644Z,5.00
2019-02-02T21:34:02.041Z,5.00
2019-02-02T21:36:31.748Z,5.00
2019-02-02T21:39:01.201Z,4.90
2019-02-02T21:41:30.633Z,5.00
2019-02-02T21:44:00.169Z,5.00
2019-02-02T21:46:29.622Z,5.00
2019-02-02T21:48:59.041Z,5.00
2019-02-02T21:51:28.446Z,4.90
2019-02-02T21:53:57.924Z,4.90
2019-02-02T21:56:27.393Z,4.90
2019-02-02T21:58:57.597Z,4.90
2019-02-02T22:01:27.007Z,4.90
2019-02-02T22:03:56.449Z,4.80
2019-02-02T22:06:25.828Z,4.90
2019-02-02T22:08:55.247Z,4.90
2019-02-02T22:11:24.688Z,4.90
2019-02-02T22:13:54.108Z,4.90
2019-02-02T22:16:23.740Z,4.90
2019-02-02T22:18:53.316Z,4.90
2019-02-02T22:21:22.682Z,5.00
2019-02-02T22:23:54.801Z,4.90
2019-02-02T22:26:23.173Z,4.90
2019-02-02T22:28:52.915Z,5.00
2019-02-02T22:31:22.377Z,5.00
2019-02-02T22:33:51.806Z,5.00
2019-02-02T22:36:27.662Z,5.10
2019-02-02T22:38:52.360Z,5.10
2019-02-02T22:41:22.440Z,5.10
2019-02-02T22:43:51.859Z,5.10
2019-02-02T22:46:39.139Z,5.10
2019-02-02T22:49:09.247Z,5.20
2019-02-02T22:51:38.889Z,5.20
2019-02-02T22:54:08.329Z,5.20
2019-02-02T22:56:37.752Z,5.20
2019-02-02T22:59:07.161Z,5.20
2019-02-02T23:01:42.218Z,5.20
2019-02-02T23:04:26.322Z,5.20
2019-02-02T23:07:13.231Z,5.20
2019-02-02T23:10:13.880Z,5.20
2019-02-02T23:13:05.105Z,5.20
2019-02-02T23:16:13.297Z,5.20
2019-02-02T23:18:42.837Z,5.20
2019-02-02T23:21:12.433Z,5.20
2019-02-02T23:23:41.849Z,5.20
2019-02-02T23:26:11.273Z,5.20
2019-02-02T23:28:40.691Z,5.20
2019-02-02T23:31:10.093Z,5.20
2019-02-02T23:33:39.841Z,5.20
2019-02-02T23:36:09.372Z,5.20
2019-02-02T23:38:38.805Z,5.20
2019-02-02T23:41:08.237Z,5.20
2019-02-02T23:43:37.855Z,5.20
2019-02-02T23:46:07.249Z,5.20
2019-02-02T23:48:36.676Z,5.20
2019-02-02T23:51:06.204Z,5.30
2019-02-02T23:53:35.585Z,5.20
2019-02-02T23:56:05.448Z,5.30
2019-02-02T23:58:34.889Z,5.30
